地図

経路データ

SID SEASON NUMBER BASIN SUBBASIN NAME ISO_TIME NATURE LAT LON WMO_WIND WMO_PRES WMO_AGENCY TRACK_TYPE DIST2LAND LANDFALL IFLAG USA_AGENCY USA_ATCF_ID USA_LAT USA_LON USA_RECORD USA_STATUS USA_WIND USA_PRES USA_SSHS USA_R34_NE USA_R34_SE USA_R34_SW USA_R34_NW USA_R50_NE USA_R50_SE USA_R50_SW USA_R50_NW USA_R64_NE USA_R64_SE USA_R64_SW USA_R64_NW USA_POCI USA_ROCI USA_RMW USA_EYE TOKYO_LAT TOKYO_LON TOKYO_GRADE TOKYO_WIND TOKYO_PRES TOKYO_R50_DIR TOKYO_R50_LONG TOKYO_R50_SHORT TOKYO_R30_DIR TOKYO_R30_LONG TOKYO_R30_SHORT TOKYO_LAND CMA_LAT CMA_LON CMA_CAT CMA_WIND CMA_PRES HKO_LAT HKO_LON HKO_CAT HKO_WIND HKO_PRES NEWDELHI_LAT NEWDELHI_LON NEWDELHI_GRADE NEWDELHI_WIND NEWDELHI_PRES NEWDELHI_CI NEWDELHI_DP NEWDELHI_POCI REUNION_LAT REUNION_LON REUNION_TYPE REUNION_WIND REUNION_PRES REUNION_TNUM REUNION_CI REUNION_RMW REUNION_R34_NE REUNION_R34_SE REUNION_R34_SW REUNION_R34_NW REUNION_R50_NE REUNION_R50_SE REUNION_R50_SW REUNION_R50_NW REUNION_R64_NE REUNION_R64_SE REUNION_R64_SW REUNION_R64_NW BOM_LAT BOM_LON BOM_TYPE BOM_WIND BOM_PRES BOM_TNUM BOM_CI BOM_RMW BOM_R34_NE BOM_R34_SE BOM_R34_SW BOM_R34_NW BOM_R50_NE BOM_R50_SE BOM_R50_SW BOM_R50_NW BOM_R64_NE BOM_R64_SE BOM_R64_SW BOM_R64_NW BOM_ROCI BOM_POCI BOM_EYE BOM_POS_METHOD BOM_PRES_METHOD NADI_LAT NADI_LON NADI_CAT NADI_WIND NADI_PRES WELLINGTON_LAT WELLINGTON_LON WELLINGTON_WIND WELLINGTON_PRES DS824_LAT DS824_LON DS824_STAGE DS824_WIND DS824_PRES TD9636_LAT TD9636_LON TD9636_STAGE TD9636_WIND TD9636_PRES TD9635_LAT TD9635_LON TD9635_WIND TD9635_PRES TD9635_ROCI NEUMANN_LAT NEUMANN_LON NEUMANN_CLASS NEUMANN_WIND NEUMANN_PRES MLC_LAT MLC_LON MLC_CLASS MLC_WIND MLC_PRES USA_GUST BOM_GUST BOM_GUST_PER REUNION_GUST REUNION_GUST_PER USA_SEAHGT USA_SEARAD_NE USA_SEARAD_SE USA_SEARAD_SW USA_SEARAD_NW STORM_SPEED STORM_DIR
1964049S12174 1964 12 SP MM EDITH 1964-02-18 00:00:00 TS -12.4000 174.100 main 675 675 O________OO_O_ jtwc_sh SH161964 -12.4000 174.100 -1 -12.4000 174.100 TC 35 -12.4000 174.100 2 -12.4000 174.100 TC 30 6 253
1964049S12174 1964 12 SP MM EDITH 1964-02-18 03:00:00 TS -12.4932 173.797 main 686 686 P________PP_P_ SH161964 -12.4976 173.790 -1 -12.4976 173.790 TC 35 -12.4799 173.819 2 -12.4976 173.790 TC 32 6 251
1964049S12174 1964 12 SP MM EDITH 1964-02-18 06:00:00 TS -12.5944 173.510 main 696 694 O________OP_O_ jtwc_sh SH161964 -12.6000 173.500 -1 -12.6000 173.500 TC 35 -12.5778 173.540 2 -12.6000 173.500 TC 35 6 247
1964049S12174 1964 12 SP MM EDITH 1964-02-18 09:00:00 TS -12.7179 173.248 main 707 676 P________PP_P_ SH161964 -12.7200 173.242 -1 -12.7200 173.242 TC 35 -12.7117 173.266 2 -12.7200 173.242 TC 35 6 238
1964049S12174 1964 12 SP MM EDITH 1964-02-18 12:00:00 TS -12.9000 173.000 main 676 640 O________OO_O_ jtwc_sh SH161964 -12.9000 173.000 -1 -12.9000 173.000 TC 35 -12.9000 173.000 2 -12.9000 173.000 TC 35 7 226
1964049S12174 1964 12 SP MM EDITH 1964-02-18 15:00:00 TS -13.1820 172.748 main 631 594 P________PP_P_ SH161964 -13.1925 172.750 -1 -13.1925 172.750 TC 35 -13.1505 172.743 2 -13.1925 172.750 TC 35 8 220
1964049S12174 1964 12 SP MM EDITH 1964-02-18 18:00:00 TS -13.4825 172.498 main 594 564 O________OP_O_ jtwc_sh SH161964 -13.5000 172.500 -1 -13.5000 172.500 TC 35 -13.4299 172.493 2 -13.5000 172.500 TC 35 7 222
1964049S12174 1964 12 SP MM EDITH 1964-02-18 21:00:00 TS -13.7267 172.249 main 555 524 P________PP_P_ SH161964 -13.7375 172.250 -1 -13.7375 172.250 TC 35 -13.6943 172.246 2 -13.7375 172.250 TC 35 6 229
1964049S12174 1964 12 SP MM EDITH 1964-02-19 00:00:00 TS -13.9000 172.000 main 524 500 O________OO_O_ jtwc_sh SH161964 -13.9000 172.000 -1 -13.9000 172.000 TC 35 -13.9000 172.000 2 -13.9000 172.000 TC 35 5 242
1964049S12174 1964 12 SP MM EDITH 1964-02-19 03:00:00 TS -13.9813 171.754 main 500 473 P________PP_P_ SH161964 -13.9800 171.750 -1 -13.9800 171.750 TC 35 -13.9854 171.766 2 -13.9800 171.750 TC 35 5 258
1964049S12174 1964 12 SP MM EDITH 1964-02-19 06:00:00 TS -14.0024 171.507 main 473 455 O________OP_O_ jtwc_sh SH161964 -14.0000 171.500 -1 -14.0000 171.500 TC 35 -14.0097 171.529 2 -14.0000 171.500 TC 35 5 268
1964049S12174 1964 12 SP MM EDITH 1964-02-19 09:00:00 TS -14.0010 171.265 main 455 429 P________PP_P_ SH161964 -13.9999 171.257 -1 -13.9999 171.257 TC 35 -14.0041 171.278 2 -13.9999 171.265 TC 35 5 270
1964049S12174 1964 12 SP MM EDITH 1964-02-19 12:00:00 TS -14.0000 171.000 main 429 403 O________OO_O_ jtwc_sh SH161964 -14.0000 171.000 -1 -14.0000 171.000 TC 35 -14.0000 171.000 2 -14.0000 171.000 TC 35 6 267
1964049S12174 1964 12 SP MM EDITH 1964-02-19 15:00:00 TS -14.0303 170.699 main 403 369 P________PP_P_ SH161964 -14.0424 170.723 -1 -14.0424 170.723 TC 35 -13.9940 170.686 2 -14.0425 170.665 TC 35 6 263
1964049S12174 1964 12 SP MM EDITH 1964-02-19 18:00:00 TS -14.0756 170.361 main 369 328 O________OP_O_ jtwc_sh SH161964 -14.1000 170.400 -1 -14.1000 170.400 TC 35 -14.0024 170.344 2 -14.1000 170.300 TC 35 7 264
1964049S12174 1964 12 SP MM EDITH 1964-02-19 21:00:00 TS -14.0993 169.992 main 328 283 P________PP_P_ SH161964 -14.1125 170.015 -1 -14.1125 170.015 TC 35 -14.0596 169.980 2 -14.1124 169.957 TC 37 7 260
1964049S12174 1964 12 SP MM EDITH 1964-02-20 00:00:00 TS -14.2000 169.600 main 283 235 O________OO_O_ jtwc_sh SH161964 -14.2000 169.600 -1 -14.2000 169.600 TC 35 -14.2000 169.600 2 -14.2000 169.600 TC 40 8 245
1964049S12174 1964 12 SP MM EDITH 1964-02-20 03:00:00 TS -14.4566 169.205 main 232 184 P________PP_P_ SH161964 -14.4474 169.200 -1 -14.4474 169.200 TC 35 -14.4840 169.211 2 -14.4475 169.208 TC 40 10 232
1964049S12174 1964 12 SP MM EDITH 1964-02-20 06:00:00 TS -14.8119 168.802 main 184 133 O________OP_O_ jtwc_sh SH161964 -14.8000 168.800 -1 -14.8000 168.800 TC 35 -14.8475 168.808 2 -14.8000 168.800 TC 40 11 226
1964049S12174 1964 12 SP MM EDITH 1964-02-20 09:00:00 TS -15.2205 168.400 main 133 78 P________PP_P_ SH161964 -15.2149 168.400 -1 -15.2149 168.400 TC 35 -15.2372 168.402 2 -15.2149 168.400 TC 42 11 224
1964049S12174 1964 12 SP MM EDITH 1964-02-20 12:00:00 TS -15.6000 168.000 main 78 30 O________OO_O_ jtwc_sh SH161964 -15.6000 168.000 -1 -15.6000 168.000 TC 35 -15.6000 168.000 2 -15.6000 168.000 TC 45 10 232
1964049S12174 1964 12 SP MM EDITH 1964-02-20 15:00:00 TS -15.8259 167.596 main 30 0 P________PP_P_ SH161964 -15.8225 167.592 -1 -15.8225 167.592 TC 35 -15.8364 167.609 2 -15.8225 167.592 TC 45 9 242
1964049S12174 1964 12 SP MM EDITH 1964-02-20 18:00:00 TS -16.0106 167.207 main 0 0 O________OP_O_ jtwc_sh SH161964 -16.0000 167.200 -1 -16.0000 167.200 TC 35 -16.0423 167.226 2 -16.0000 167.200 TC 45 8 240
1964049S12174 1964 12 SP MM EDITH 1964-02-20 21:00:00 TS -16.2335 166.849 main 33 33 P________PP_P_ SH161964 -16.2274 166.842 -1 -16.2274 166.842 TC 35 -16.2521 166.856 2 -16.2273 166.857 TC 47 8 234
1964049S12174 1964 12 SP MM EDITH 1964-02-21 00:00:00 TS -16.5000 166.500 main 78 78 O________OO_O_ jtwc_sh SH161964 -16.5000 166.500 -1 -16.5000 166.500 TC 35 -16.5000 166.500 2 -16.5000 166.500 TC 50 9 230
1964049S12174 1964 12 SP MM EDITH 1964-02-21 03:00:00 TS -16.8388 166.099 main 132 132 P________PP_P_ SH161964 -16.8275 166.142 -1 -16.8275 166.142 TC 35 -16.8727 166.085 2 -16.8277 166.028 TC 52 10 226
1964049S12174 1964 12 SP MM EDITH 1964-02-21 06:00:00 TS -17.2201 165.724 main 193 193 O________OP_O_ jtwc_sh SH161964 -17.2000 165.800 -1 -17.2000 165.800 TC 35 -17.2803 165.694 2 -17.2000 165.600 TC 55 11 220
1964049S12174 1964 12 SP MM EDITH 1964-02-21 09:00:00 TS -17.6407 165.395 main 245 245 P________PP_P_ SH161964 -17.6301 165.440 -1 -17.6301 165.440 TC 35 -17.6727 165.381 2 -17.6299 165.318 TC 57 9 213
1964049S12174 1964 12 SP MM EDITH 1964-02-21 12:00:00 TS -18.0000 165.200 main 267 246 O________OO_O_ jtwc_sh SH161964 -18.0000 165.200 -1 -18.0000 165.200 TC 35 -18.0000 165.200 2 -18.0000 165.200 TC 60 6 200
1964049S12174 1964 12 SP MM EDITH 1964-02-21 15:00:00 TS -18.1821 165.191 main 246 238 P________PP_P_ SH161964 -18.1949 165.167 -1 -18.1949 165.167 TC 35 -18.1436 165.189 2 -18.1949 165.240 TC 57 3 157
1964049S12174 1964 12 SP MM EDITH 1964-02-21 18:00:00 TS -18.2818 165.328 main 238 238 O________OP_O_ jtwc_sh SH161964 -18.3000 165.300 -1 -18.3000 165.300 TC 35 -18.2270 165.313 2 -18.3000 165.400 TC 55 4 117
1964049S12174 1964 12 SP MM EDITH 1964-02-21 21:00:00 TS -18.3467 165.535 main 247 237 P________PP_P_ SH161964 -18.3551 165.520 -1 -18.3551 165.520 TC 35 -18.3219 165.530 2 -18.3550 165.570 TC 55 5 116
1964049S12174 1964 12 SP MM EDITH 1964-02-22 00:00:00 TS -18.5000 165.800 main 243 221 O________OO_O_ jtwc_sh SH161964 -18.5000 165.800 -1 -18.5000 165.800 TC 35 -18.5000 165.800 2 -18.5000 165.800 TC 55 7 139
1964049S12174 1964 12 SP MM EDITH 1964-02-22 03:00:00 TS -18.9013 166.043 main 221 194 P________PP_P_ SH161964 -18.8974 166.035 -1 -18.8974 166.035 TC 35 -18.9130 166.015 2 -18.8975 166.085 TC 52 10 151
1964049S12174 1964 12 SP MM EDITH 1964-02-22 06:00:00 TS -19.4017 166.320 main 194 175 O________OP_O_ jtwc_sh SH161964 -19.4000 166.300 -1 -19.4000 166.300 TC 35 -19.4067 166.279 2 -19.4000 166.400 TC 50 11 151
1964049S12174 1964 12 SP MM EDITH 1964-02-22 09:00:00 TS -19.8992 166.632 main 175 163 P________PP_P_ SH161964 -19.9025 166.627 -1 -19.9025 166.627 TC 35 -19.8971 166.603 2 -19.8948 166.670 TC 47 11 145
1964049S12174 1964 12 SP MM EDITH 1964-02-22 12:00:00 TS -20.3000 167.000 main 163 160 O________OO_O_ jtwc_sh SH161964 -20.3000 167.000 -1 -20.3000 167.000 TC 35 -20.3000 167.000 2 -20.3000 167.000 TC 45 9 129
1964049S12174 1964 12 SP MM EDITH 1964-02-22 15:00:00 TS -20.4691 167.389 main 169 169 P________PP_P_ SH161964 -20.4521 167.348 -1 -20.4521 167.348 TC 35 -20.4623 167.404 2 -20.5099 167.455 TC 42 9 106
1964049S12174 1964 12 SP MM EDITH 1964-02-22 18:00:00 TS -20.5336 167.872 main 205 205 O________OP_O_ jtwc_sh SH161964 -20.5000 167.800 -1 -20.5000 167.800 TC 35 -20.5344 167.887 2 -20.6000 168.000 TC 40 10 97
1964049S12174 1964 12 SP MM EDITH 1964-02-22 21:00:00 TS -20.5888 168.454 main 235 235 P________PP_P_ SH161964 -20.5695 168.411 -1 -20.5695 168.411 TC 35 -20.5895 168.477 2 -20.6266 168.518 TC 37 13 98
1964049S12174 1964 12 SP MM EDITH 1964-02-23 00:00:00 TS -20.7000 169.200 main 282 282 O________OO_O_ jtwc_sh SH161964 -20.7000 169.200 -1 -20.7000 169.200 TC 35 -20.7000 169.200 2 -20.7000 169.200 TC 35 16 103
1964049S12174 1964 12 SP MM EDITH 1964-02-23 03:00:00 TS -20.9596 170.144 main 347 347 P________PP_P_ SH161964 -20.9625 170.147 -1 -20.9625 170.147 TC 35 -20.9579 170.092 2 -20.9556 170.190 TC 35 20 108
1964049S12174 1964 12 SP MM EDITH 1964-02-23 06:00:00 TS -21.2943 171.204 main 445 445 O________OP_O_ jtwc_sh SH161964 -21.3000 171.200 -1 -21.3000 171.200 TC 35 -21.2772 171.114 2 -21.3000 171.300 TC 35 21 109
1964049S12174 1964 12 SP MM EDITH 1964-02-23 09:00:00 TS -21.6396 172.253 main 550 549 P________PP_P_ SH161964 -21.6421 172.250 -1 -21.6421 172.250 TC 35 -21.6325 172.205 2 -21.6418 172.308 TC 35 21 110
1964049S12174 1964 12 SP MM EDITH 1964-02-23 12:00:00 TS -22.0000 173.300 main 603 570 O________OO_O_ jtwc_sh SH161964 -22.0000 173.300 -1 -22.0000 173.300 TC 35 -22.0000 173.300 2 -22.0000 173.300 TC 35 20 110
1964049S12174 1964 12 SP MM EDITH 1964-02-23 15:00:00 TS -22.3481 174.304 main 564 552 P________PP_P_ SH161964 -22.3492 174.308 -1 -22.3492 174.308 TC 35 -22.3445 174.300 2 -22.3494 174.301 TC 35 20 111
1964049S12174 1964 12 SP MM EDITH 1964-02-23 18:00:00 TS -22.6992 175.299 main 555 551 O________OP_O_ jtwc_sh SH161964 -22.7000 175.300 -1 -22.7000 175.300 TC 35 -22.6967 175.294 2 -22.7000 175.300 TC 35 20 111
1964049S12174 1964 12 SP MM EDITH 1964-02-23 21:00:00 TS -23.0496 176.293 main 551 551 P________PP_P_ SH161964 -23.0492 176.293 -1 -23.0492 176.293 TC 35 -23.0506 176.291 2 -23.0492 176.293 TC 35 20 111
1964049S12174 1964 12 SP MM EDITH 1964-02-24 00:00:00 TS -23.4000 177.300 main 573 572 O________OO_O_ jtwc_sh SH161964 -23.4000 177.300 -1 -23.4000 177.300 TC 35 -23.4000 177.300 2 -23.4000 177.300 TC 35 20 111
1964049S12174 1964 12 SP MM EDITH 1964-02-24 03:00:00 TS -23.7606 178.344 main 615 615 P________PP_P_ SH161964 -23.7569 178.343 -1 -23.7569 178.343 TC 35 -23.7716 178.347 2 -23.7569 178.343 TC 35 21 110
1964049S12174 1964 12 SP MM EDITH 1964-02-24 06:00:00 TS -24.1078 179.401 main 660 660 O________OP_O_ jtwc_sh SH161964 -24.1000 179.400 -1 -24.1000 179.400 TC 35 -24.1311 179.406 2 -24.1000 179.400 TC 35 20 109
1964049S12174 1964 12 SP MM EDITH 1964-02-24 09:00:00 TS -24.4346 180.461 main 722 722 P________PP_P_ SH161964 -24.4294 -179.542 -1 -24.4294 -179.542 TC 35 -24.4498 -179.538 2 -24.4296 -179.535 TC 35 20 107
1964049S12174 1964 12 SP MM EDITH 1964-02-24 12:00:00 TS -24.7000 181.500 main 792 792 O________OO_O_ jtwc_sh SH161964 -24.7000 -178.500 -1 -24.7000 181.500 TC 35 -24.7000 -178.500 2 -24.7000 -178.500 TC 35 19 104
1964049S12174 1964 12 SP MM EDITH 1964-02-24 15:00:00 TS -24.8862 182.499 main 855 855 P________PP_P_ SH161964 -24.8943 -177.485 -1 -24.8943 -177.485 TC 35 -24.8624 -177.493 2 -24.8939 -177.542 TC 35 18 99
1964049S12174 1964 12 SP MM EDITH 1964-02-24 18:00:00 TS -24.9879 183.472 main 917 917 O________OP_O_ jtwc_sh SH161964 -25.0000 -176.500 -1 -25.0000 183.500 TC 35 -24.9514 -176.513 2 -25.0000 -176.600 TC 35 18 94
1964049S12174 1964 12 SP MM EDITH 1964-02-24 21:00:00 TS -25.0153 184.437 main 970 970 P________PP_P_ SH161964 -25.0237 -175.542 -1 -25.0237 -175.542 TC 35 -24.9898 -175.552 2 -25.0241 -175.615 TC 32 17 90
1964049S12174 1964 12 SP MM EDITH 1964-02-25 00:00:00 TS -25.0000 185.400 main 1036 O________OO_O_ jtwc_sh SH161964 -25.0000 -174.600 -1 -25.0000 185.400 TC 35 -25.0000 -174.600 2 -25.0000 -174.600 TC 30 17 89

デジタル台風データ・検索

IBTrACS Databaseについて

本データベースは、米国NOAAが公開する1842年以降の世界の熱帯低気圧のベストトラックデータアーカイブInternational Best Track Archive for Climate Stewardship (IBTrACS)を、ウェブで閲覧しやすい形式に変換したものです。

最終更新日:2021-12-08